Accueil
METAR-TAF:

METAR-TAF

Aéroports :

Luni

Sarzana, Italie

latitude: 44-05N, longitude: 009-59E, altitude: 9 m

Observation

Le bulletin a été fait il y a 13 heures et 15 minutes, à 14:55 UTC
Vent 11 kt de nord, variant entre nord-ouest et nord-est
Température 15°C
Humidité 13%
Pression 1016 hPa
Visibilité 10 km ou plus
pas de nuages en-dessous de 1500 mètres et pas de cumulonimbus.

METAR: LIQW 101455Z 36011KT 310V050 CAVOK 15/M13 Q1016 RMK SKC VIS MIN 9999 WIND THR18 36016KT BLU

Heure: 05:10 (04:10 UTC)


TAF: absent

Observations et prévisions météorologiques de plus de 4000 aéroports (messages METAR et TAF).

Les stations disponibles sont représentées par des disques jaunes et rouges sur la carte.

Passer la souris dessus pour voir le nom de la station.

Cliquer dessus pour voir les observations et prévisions météorologiques.

Pour changer de carte: cliquez sur les boutons verts avec une croix noire pour zoomer, sur le bouton vert avec un tiret pour effectuer un zoom arrière, ou sur les flèches vertes pour les cartes adjacentes.


METAR-TAF: